createdAt,value
2023-03-11T00:00:46.741Z,11.89
2023-03-11T00:01:27.467Z,12.00
2023-03-11T00:02:07.319Z,11.86
2023-03-11T00:02:47.376Z,11.98
2023-03-11T00:03:31.280Z,11.99
2023-03-11T00:04:11.806Z,11.85
2023-03-11T00:04:52.374Z,11.91
2023-03-11T00:05:42.552Z,11.94
2023-03-11T00:06:23.311Z,11.99
2023-03-11T00:07:03.374Z,12.01
2023-03-11T00:07:46.297Z,11.90
2023-03-11T00:08:29.395Z,11.99
2023-03-11T00:09:11.297Z,12.01
2023-03-11T00:09:51.377Z,11.89
2023-03-11T00:10:38.304Z,12.04
2023-03-11T00:11:19.796Z,11.99
2023-03-11T00:11:59.309Z,12.07
2023-03-11T00:12:39.355Z,12.03
2023-03-11T00:13:22.273Z,11.87
2023-03-11T00:14:02.402Z,11.94
2023-03-11T00:14:43.276Z,11.86
2023-03-11T00:15:23.404Z,11.90
2023-03-11T00:16:04.273Z,11.96
2023-03-11T00:16:44.408Z,11.96
2023-03-11T00:17:25.309Z,11.86
2023-03-11T00:18:05.424Z,12.12
2023-03-11T00:18:45.251Z,12.06
2023-03-11T00:19:25.384Z,11.93
2023-03-11T00:20:06.252Z,11.81
2023-03-11T00:20:50.370Z,11.81
2023-03-11T00:21:30.320Z,11.76
2023-03-11T00:22:10.375Z,11.86
2023-03-11T00:22:51.337Z,11.96
2023-03-11T00:23:35.545Z,11.93
2023-03-11T00:24:16.266Z,11.87
2023-03-11T00:24:56.394Z,11.97
2023-03-11T00:25:39.268Z,11.88
2023-03-11T00:26:19.399Z,11.89
2023-03-11T00:27:00.275Z,11.87
2023-03-11T00:27:40.375Z,11.86
2023-03-11T00:28:22.294Z,11.90
2023-03-11T00:29:02.371Z,11.92
2023-03-11T00:29:43.284Z,11.99
2023-03-11T00:30:24.374Z,12.02
2023-03-11T00:31:05.289Z,11.86
2023-03-11T00:31:45.335Z,11.77
2023-03-11T00:32:25.292Z,11.81
2023-03-11T00:33:06.349Z,11.85
2023-03-11T00:33:47.333Z,11.94
2023-03-11T00:34:27.360Z,12.04
2023-03-11T00:35:08.257Z,11.99
2023-03-11T00:35:50.428Z,12.14
2023-03-11T00:36:40.269Z,12.16
2023-03-11T00:37:20.372Z,12.21
2023-03-11T00:38:06.306Z,12.18
2023-03-11T00:38:54.342Z,12.10
2023-03-11T00:39:48.250Z,12.05
2023-03-11T00:40:45.274Z,12.13
2023-03-11T00:41:39.292Z,12.10
2023-03-11T00:42:33.251Z,12.08
2023-03-11T00:43:28.304Z,12.05
2023-03-11T00:44:15.267Z,12.14
2023-03-11T00:44:49.384Z,12.01
2023-03-11T00:45:37.255Z,12.17
2023-03-11T00:46:11.401Z,12.20
2023-03-11T00:46:58.261Z,12.16
2023-03-11T00:47:32.337Z,12.00
2023-03-11T00:48:21.250Z,11.98
2023-03-11T00:48:58.429Z,12.04
2023-03-11T00:49:39.276Z,11.88
2023-03-11T00:50:29.366Z,12.01
2023-03-11T00:51:10.264Z,12.12
2023-03-11T00:51:51.338Z,12.00
2023-03-11T00:52:31.240Z,12.12
2023-03-11T00:53:12.476Z,12.10
2023-03-11T00:53:53.261Z,11.97
2023-03-11T00:54:33.341Z,12.02
2023-03-11T00:55:14.264Z,11.92
2023-03-11T00:55:54.333Z,11.98
2023-03-11T00:56:35.233Z,11.89
2023-03-11T00:57:15.353Z,11.94
2023-03-11T00:58:00.269Z,11.90
2023-03-11T00:58:40.638Z,11.84
2023-03-11T00:59:21.219Z,11.89
2023-03-11T01:00:02.373Z,11.86
2023-03-11T01:00:43.250Z,11.94
2023-03-11T01:01:26.411Z,11.93
2023-03-11T01:02:06.243Z,11.94
2023-03-11T01:02:46.342Z,11.91
2023-03-11T01:03:27.227Z,12.06
2023-03-11T01:04:07.332Z,12.01
2023-03-11T01:04:48.285Z,12.04
2023-03-11T01:05:32.427Z,12.15
2023-03-11T01:06:13.261Z,12.01
2023-03-11T01:06:53.329Z,12.02
2023-03-11T01:07:34.233Z,11.75
2023-03-11T01:08:14.352Z,11.88
2023-03-11T01:08:54.220Z,12.02
2023-03-11T01:09:34.304Z,12.04
2023-03-11T01:10:17.255Z,11.98
2023-03-11T01:10:57.325Z,11.99
2023-03-11T01:11:39.244Z,11.90
2023-03-11T01:12:19.367Z,11.98
2023-03-11T01:13:00.275Z,11.93
2023-03-11T01:13:41.328Z,11.94
2023-03-11T01:14:22.221Z,11.99
2023-03-11T01:15:02.332Z,11.91
2023-03-11T01:15:44.277Z,12.00
2023-03-11T01:16:24.425Z,12.06
2023-03-11T01:17:05.239Z,12.06
2023-03-11T01:17:45.572Z,11.99
2023-03-11T01:18:27.225Z,11.93
2023-03-11T01:19:07.524Z,11.99
2023-03-11T01:19:48.214Z,12.10
2023-03-11T01:20:28.335Z,11.82
2023-03-11T01:21:09.254Z,11.82
2023-03-11T01:21:49.314Z,11.87
2023-03-11T01:22:30.236Z,11.88
2023-03-11T01:23:11.289Z,11.75
2023-03-11T01:23:52.195Z,11.91
2023-03-11T01:24:32.334Z,11.82
2023-03-11T01:25:13.208Z,11.86
2023-03-11T01:25:53.333Z,11.83
2023-03-11T01:26:35.252Z,11.80
2023-03-11T01:27:15.349Z,11.85
2023-03-11T01:27:56.225Z,11.70
2023-03-11T01:28:36.364Z,11.87
2023-03-11T01:29:16.192Z,11.70
2023-03-11T01:29:56.376Z,11.70
2023-03-11T01:30:37.225Z,11.73
2023-03-11T01:31:18.358Z,11.60
2023-03-11T01:31:59.181Z,11.59
2023-03-11T01:32:39.436Z,11.53
2023-03-11T01:33:26.249Z,11.73
2023-03-11T01:34:06.319Z,11.80
2023-03-11T01:34:47.214Z,11.58
2023-03-11T01:35:30.349Z,11.67
2023-03-11T01:36:12.234Z,11.47
2023-03-11T01:36:52.300Z,11.43
2023-03-11T01:37:33.175Z,11.51
2023-03-11T01:38:13.313Z,11.58
2023-03-11T01:38:53.259Z,11.59
2023-03-11T01:39:33.321Z,11.55
2023-03-11T01:40:20.206Z,11.73
2023-03-11T01:41:00.351Z,11.49
2023-03-11T01:41:41.200Z,11.48
2023-03-11T01:42:21.296Z,11.38
2023-03-11T01:43:02.184Z,11.54
2023-03-11T01:44:08.207Z,11.52
2023-03-11T01:45:02.232Z,11.68
2023-03-11T01:46:05.231Z,11.62
2023-03-11T01:47:08.209Z,11.61
2023-03-11T01:48:02.228Z,11.68
2023-03-11T01:49:08.227Z,11.73
2023-03-11T01:50:03.208Z,11.69
2023-03-11T01:51:02.188Z,11.51
2023-03-11T01:52:00.188Z,11.61
2023-03-11T01:52:55.224Z,11.67
2023-03-11T01:53:49.195Z,11.59
2023-03-11T01:54:38.227Z,11.62
2023-03-11T01:55:20.287Z,11.46
2023-03-11T01:56:01.172Z,11.42
2023-03-11T01:56:42.287Z,11.38
2023-03-11T01:57:23.145Z,11.64
2023-03-11T01:58:04.293Z,11.61
2023-03-11T01:58:46.187Z,11.58
2023-03-11T01:59:31.308Z,11.52
2023-03-11T02:00:17.190Z,11.55
2023-03-11T02:00:57.265Z,11.57
2023-03-11T02:01:38.218Z,11.64
2023-03-11T02:02:39.286Z,11.64
2023-03-11T02:03:31.170Z,11.65
2023-03-11T02:04:11.245Z,11.57
2023-03-11T02:04:52.195Z,11.38
2023-03-11T02:05:33.200Z,11.52
2023-03-11T02:06:10.348Z,11.39
2023-03-11T02:06:58.194Z,11.57
2023-03-11T02:07:32.259Z,11.48
2023-03-11T02:08:19.151Z,11.31
2023-03-11T02:08:53.236Z,11.51
2023-03-11T02:09:40.145Z,11.44
2023-03-11T02:10:16.285Z,11.37
2023-03-11T02:10:59.190Z,11.29
2023-03-11T02:11:39.285Z,11.33
2023-03-11T02:12:22.166Z,11.35
2023-03-11T02:13:03.750Z,11.05
2023-03-11T02:13:46.169Z,11.31
2023-03-11T02:14:26.330Z,11.29
2023-03-11T02:15:07.185Z,11.27
2023-03-11T02:15:47.299Z,11.20
2023-03-11T02:16:27.232Z,11.24
2023-03-11T02:17:08.256Z,11.24
2023-03-11T02:17:49.194Z,11.27
2023-03-11T02:18:29.328Z,11.17
2023-03-11T02:19:41.228Z,11.08
2023-03-11T02:21:04.252Z,11.36
2023-03-11T02:21:44.179Z,11.33
2023-03-11T02:22:24.279Z,11.47
2023-03-11T02:23:05.136Z,11.39
2023-03-11T02:24:21.296Z,11.36
2023-03-11T02:25:47.160Z,11.42
2023-03-11T02:26:38.265Z,11.12
2023-03-11T02:27:21.180Z,11.20
2023-03-11T02:28:02.265Z,10.97
2023-03-11T02:28:43.223Z,11.16
2023-03-11T02:29:25.265Z,11.09
2023-03-11T02:30:06.137Z,10.96
2023-03-11T02:30:50.514Z,10.90
2023-03-11T02:31:31.234Z,10.85
2023-03-11T02:32:16.268Z,10.67
2023-03-11T02:32:57.192Z,10.66
2023-03-11T02:33:39.499Z,10.63
2023-03-11T02:34:28.139Z,10.69
2023-03-11T02:35:08.240Z,10.62
2023-03-11T02:35:48.187Z,10.43
2023-03-11T02:36:47.299Z,10.56
2023-03-11T02:37:28.146Z,10.60
2023-03-11T02:38:15.189Z,10.41
2023-03-11T02:39:09.136Z,10.60
2023-03-11T02:40:07.170Z,10.47
2023-03-11T02:41:22.120Z,10.31
2023-03-11T02:42:29.161Z,10.25
2023-03-11T02:43:27.218Z,10.07
2023-03-11T02:44:25.136Z,10.07
2023-03-11T02:45:27.136Z,10.05
2023-03-11T02:46:22.128Z,10.17
2023-03-11T02:47:17.124Z,10.22
2023-03-11T02:48:12.139Z,10.22
2023-03-11T02:48:53.138Z,10.25
2023-03-11T02:49:33.233Z,10.27
2023-03-11T02:50:18.157Z,10.06
2023-03-11T02:50:59.238Z,10.05
2023-03-11T02:51:40.133Z,10.11
2023-03-11T02:52:20.211Z,9.91
2023-03-11T02:53:00.118Z,10.04
2023-03-11T02:53:46.223Z,10.06
2023-03-11T02:54:27.163Z,9.71
2023-03-11T02:55:07.224Z,9.68
2023-03-11T02:55:47.107Z,9.62
2023-03-11T02:56:27.253Z,9.59
2023-03-11T02:57:08.129Z,9.73
2023-03-11T02:57:49.235Z,9.68
2023-03-11T02:58:30.120Z,9.58
2023-03-11T02:59:10.243Z,9.66
2023-03-11T02:59:51.150Z,9.49
2023-03-11T03:00:32.187Z,9.51
2023-03-11T03:01:13.186Z,9.56
2023-03-11T03:01:53.215Z,9.56
2023-03-11T03:02:35.106Z,9.34
2023-03-11T03:03:15.837Z,9.28
2023-03-11T03:03:57.195Z,9.26
2023-03-11T03:04:37.285Z,9.25
2023-03-11T03:05:18.139Z,9.13
2023-03-11T03:05:58.268Z,9.06
2023-03-11T03:06:39.116Z,9.21
2023-03-11T03:07:19.211Z,9.16
2023-03-11T03:08:00.109Z,8.91
2023-03-11T03:08:40.185Z,9.03
2023-03-11T03:09:20.085Z,8.97
2023-03-11T03:10:00.231Z,9.00
2023-03-11T03:10:41.139Z,8.96
2023-03-11T03:11:21.224Z,9.00
2023-03-11T03:12:01.123Z,8.96
2023-03-11T03:12:41.196Z,8.96
2023-03-11T03:13:22.109Z,8.87
2023-03-11T03:14:02.237Z,8.97
2023-03-11T03:14:44.098Z,8.83
2023-03-11T03:15:24.190Z,8.78
2023-03-11T03:16:05.192Z,8.90
2023-03-11T03:16:45.303Z,8.82
2023-03-11T03:17:26.144Z,8.72
2023-03-11T03:18:06.207Z,8.85
2023-03-11T03:18:47.096Z,8.73
2023-03-11T03:19:27.212Z,8.68
2023-03-11T03:20:08.106Z,8.87
2023-03-11T03:20:48.205Z,8.80
2023-03-11T03:21:28.136Z,8.84
2023-03-11T03:22:08.167Z,8.86
2023-03-11T03:22:49.107Z,8.93
2023-03-11T03:23:29.183Z,8.82
2023-03-11T03:24:10.102Z,8.62
2023-03-11T03:24:50.164Z,8.78
2023-03-11T03:25:31.100Z,8.66
2023-03-11T03:26:13.693Z,8.73
2023-03-11T03:26:55.104Z,8.61
2023-03-11T03:27:35.211Z,8.54
2023-03-11T03:28:16.084Z,8.80
2023-03-11T03:28:56.164Z,8.74
2023-03-11T03:29:37.094Z,8.72
2023-03-11T03:30:18.193Z,8.75
2023-03-11T03:30:59.088Z,8.92
2023-03-11T03:31:39.318Z,8.93
2023-03-11T03:32:19.156Z,8.70
2023-03-11T03:32:59.675Z,8.59
2023-03-11T03:33:41.067Z,8.62
2023-03-11T03:34:21.163Z,8.64
2023-03-11T03:35:05.077Z,8.85
2023-03-11T03:35:50.239Z,8.85
2023-03-11T03:36:31.079Z,9.00
2023-03-11T03:37:11.183Z,8.93
2023-03-11T03:37:51.094Z,9.08
2023-03-11T03:38:31.160Z,8.94
2023-03-11T03:39:13.072Z,8.87
2023-03-11T03:39:53.165Z,8.96
2023-03-11T03:40:34.073Z,8.92
2023-03-11T03:41:18.102Z,8.86
2023-03-11T03:41:58.052Z,8.96
2023-03-11T03:42:38.244Z,8.82
2023-03-11T03:43:19.093Z,8.87
2023-03-11T03:43:59.158Z,8.87
2023-03-11T03:44:40.060Z,8.81
2023-03-11T03:45:20.158Z,8.93
2023-03-11T03:46:05.172Z,8.92
2023-03-11T03:46:45.150Z,8.82
2023-03-11T03:47:27.046Z,8.98
2023-03-11T03:48:21.137Z,8.95
2023-03-11T03:49:15.076Z,8.68
2023-03-11T03:50:09.076Z,8.70
2023-03-11T03:51:03.062Z,8.97
2023-03-11T03:51:57.055Z,8.83
2023-03-11T03:52:53.046Z,8.78
2023-03-11T03:53:42.096Z,8.92
2023-03-11T03:54:16.145Z,8.88
2023-03-11T03:55:03.045Z,9.07
2023-03-11T03:55:37.157Z,9.17
2023-03-11T03:56:25.073Z,9.11
2023-03-11T03:56:59.176Z,9.19
2023-03-11T03:57:46.086Z,9.04
2023-03-11T03:58:20.169Z,9.07
2023-03-11T03:59:09.078Z,9.09
2023-03-11T03:59:43.179Z,9.26
2023-03-11T04:00:30.066Z,9.12
2023-03-11T04:01:05.199Z,9.16
2023-03-11T04:01:52.106Z,9.26
2023-03-11T04:02:26.267Z,9.24
2023-03-11T04:03:14.089Z,9.30
2023-03-11T04:03:48.211Z,9.27
2023-03-11T04:04:29.078Z,9.01
2023-03-11T04:05:09.161Z,9.07
2023-03-11T04:05:49.036Z,8.88
2023-03-11T04:06:33.137Z,9.04
2023-03-11T04:07:35.035Z,8.95
2023-03-11T04:08:29.059Z,8.94
2023-03-11T04:09:25.060Z,9.05
2023-03-11T04:10:05.079Z,8.95
2023-03-11T04:10:45.186Z,9.05
2023-03-11T04:11:26.039Z,9.05
2023-03-11T04:12:06.186Z,9.03
2023-03-11T04:12:46.037Z,8.87
2023-03-11T04:13:26.179Z,8.89
2023-03-11T04:14:07.023Z,9.01
2023-03-11T04:14:48.718Z,8.79
2023-03-11T04:15:29.094Z,8.75
2023-03-11T04:16:13.163Z,8.84
2023-03-11T04:16:53.094Z,8.74
2023-03-11T04:17:33.146Z,8.75
2023-03-11T04:18:13.027Z,8.61
2023-03-11T04:18:54.173Z,8.77
2023-03-11T04:19:35.040Z,8.80
2023-03-11T04:20:16.130Z,8.68
2023-03-11T04:20:57.051Z,8.66
2023-03-11T04:21:39.151Z,8.38
2023-03-11T04:22:19.037Z,8.45
2023-03-11T04:22:59.187Z,8.62
2023-03-11T04:23:41.038Z,8.45
2023-03-11T04:24:21.158Z,8.57
2023-03-11T04:25:01.054Z,8.82
2023-03-11T04:25:41.121Z,8.72
2023-03-11T04:26:22.052Z,8.79
2023-03-11T04:27:02.144Z,8.72
2023-03-11T04:27:45.008Z,8.74
2023-03-11T04:28:25.153Z,8.88
2023-03-11T04:29:06.030Z,8.97
2023-03-11T04:29:46.135Z,8.86
2023-03-11T04:30:26.024Z,8.69
2023-03-11T04:31:06.262Z,8.71
2023-03-11T04:31:47.052Z,8.73
2023-03-11T04:32:27.161Z,8.49
2023-03-11T04:33:07.998Z,8.33
2023-03-11T04:33:48.295Z,8.59
2023-03-11T04:34:29.035Z,8.41
2023-03-11T04:35:12.175Z,8.19
2023-03-11T04:35:53.058Z,8.24
2023-03-11T04:36:33.171Z,8.39
2023-03-11T04:37:14.060Z,8.28
2023-03-11T04:37:54.106Z,8.28
2023-03-11T04:38:34.057Z,8.20
2023-03-11T04:39:14.124Z,8.12
2023-03-11T04:39:55.021Z,8.30
2023-03-11T04:40:35.113Z,8.35
2023-03-11T04:41:16.029Z,8.15
2023-03-11T04:41:56.106Z,7.96
2023-03-11T04:42:36.059Z,7.80
2023-03-11T04:43:16.185Z,7.87
2023-03-11T04:43:57.003Z,7.68
2023-03-11T04:44:37.090Z,7.58
2023-03-11T04:45:17.990Z,7.44
2023-03-11T04:45:58.152Z,7.35
2023-03-11T04:46:39.118Z,7.32
2023-03-11T04:47:19.194Z,7.29
2023-03-11T04:48:00.074Z,7.45
2023-03-11T04:48:40.104Z,7.28
2023-03-11T04:49:21.004Z,7.01
2023-03-11T04:50:01.128Z,7.00
2023-03-11T04:50:41.995Z,7.05
2023-03-11T04:51:22.129Z,6.96
2023-03-11T04:52:02.992Z,6.90
2023-03-11T04:52:43.077Z,6.83
2023-03-11T04:53:24.051Z,6.72
2023-03-11T04:54:04.186Z,6.73
2023-03-11T04:54:43.998Z,6.79
2023-03-11T04:55:24.093Z,6.75
2023-03-11T04:56:04.999Z,6.57
2023-03-11T04:56:45.119Z,6.55
2023-03-11T04:57:24.988Z,6.44
2023-03-11T04:58:05.086Z,6.43
2023-03-11T04:58:45.017Z,6.45
2023-03-11T04:59:25.122Z,6.41
2023-03-11T05:00:05.979Z,6.35
2023-03-11T05:00:46.263Z,6.38
2023-03-11T05:01:26.062Z,6.25
2023-03-11T05:02:06.277Z,6.23
2023-03-11T05:02:46.992Z,6.02
2023-03-11T05:03:27.162Z,6.02
2023-03-11T05:04:08.012Z,6.06
2023-03-11T05:04:48.110Z,6.10
2023-03-11T05:05:27.992Z,6.18
2023-03-11T05:06:08.114Z,5.95
2023-03-11T05:06:47.989Z,6.13
2023-03-11T05:07:28.085Z,6.12
2023-03-11T05:08:09.006Z,6.09
2023-03-11T05:08:49.116Z,6.16
2023-03-11T05:09:30.029Z,6.03
2023-03-11T05:10:12.074Z,5.99
2023-03-11T05:10:51.990Z,5.99
2023-03-11T05:11:32.058Z,5.84
2023-03-11T05:12:12.967Z,5.90
2023-03-11T05:12:53.092Z,5.85
2023-03-11T05:13:32.985Z,5.84
2023-03-11T05:14:13.080Z,5.69
2023-03-11T05:14:53.044Z,5.82
2023-03-11T05:15:33.130Z,5.72
2023-03-11T05:16:14.026Z,5.75
2023-03-11T05:16:54.134Z,5.72
2023-03-11T05:17:33.980Z,5.71
2023-03-11T05:18:14.079Z,5.76
2023-03-11T05:18:54.960Z,5.89
2023-03-11T05:19:35.496Z,5.75
2023-03-11T05:20:18.028Z,5.67
2023-03-11T05:20:58.083Z,5.74
2023-03-11T05:21:37.968Z,5.60
2023-03-11T05:22:18.080Z,5.46
2023-03-11T05:22:58.974Z,5.55
2023-03-11T05:23:39.057Z,5.50
2023-03-11T05:24:19.955Z,5.34
2023-03-11T05:25:00.084Z,5.46
2023-03-11T05:25:41.988Z,5.32
2023-03-11T05:26:22.079Z,5.44
2023-03-11T05:27:02.985Z,5.56
2023-03-11T05:27:43.133Z,5.24
2023-03-11T05:28:23.964Z,5.24
2023-03-11T05:29:04.053Z,5.41
2023-03-11T05:29:43.964Z,5.41
2023-03-11T05:30:24.149Z,5.23
2023-03-11T05:31:03.991Z,5.44
2023-03-11T05:31:44.169Z,5.41
2023-03-11T05:32:26.129Z,5.55
2023-03-11T05:33:06.068Z,5.27
2023-03-11T05:33:45.954Z,5.36
2023-03-11T05:34:27.100Z,5.17
2023-03-11T05:35:07.963Z,5.28
2023-03-11T05:35:48.092Z,5.36
2023-03-11T05:36:28.996Z,5.29
2023-03-11T05:37:09.122Z,5.11
2023-03-11T05:37:49.958Z,5.11
2023-03-11T05:38:43.987Z,5.13
2023-03-11T05:39:38.014Z,5.28
2023-03-11T05:40:31.959Z,5.21
2023-03-11T05:41:25.966Z,5.05
2023-03-11T05:42:06.977Z,5.00
2023-03-11T05:42:47.052Z,5.08
2023-03-11T05:43:26.945Z,4.97
2023-03-11T05:44:20.963Z,5.17
2023-03-11T05:45:14.970Z,5.22
2023-03-11T05:46:09.011Z,5.23
2023-03-11T05:47:03.038Z,5.13
2023-03-11T05:47:43.979Z,5.21
2023-03-11T05:48:24.094Z,5.09
2023-03-11T05:49:05.941Z,5.08
2023-03-11T05:49:46.024Z,5.05
2023-03-11T05:50:26.933Z,5.14
2023-03-11T05:51:07.287Z,4.96
2023-03-11T05:51:47.930Z,4.97
2023-03-11T05:52:28.044Z,4.89
2023-03-11T05:53:07.970Z,5.06
2023-03-11T05:53:54.051Z,5.01
2023-03-11T05:54:33.946Z,4.94
2023-03-11T05:55:16.055Z,5.01
2023-03-11T05:56:04.930Z,5.00
2023-03-11T05:56:45.030Z,5.02
2023-03-11T05:57:26.058Z,5.07
2023-03-11T05:58:06.096Z,5.00
2023-03-11T05:58:45.992Z,5.01
2023-03-11T05:59:26.087Z,4.99
2023-03-11T06:00:06.942Z,5.10
2023-03-11T06:00:47.040Z,5.01
2023-03-11T06:01:26.945Z,5.01
2023-03-11T06:02:08.032Z,5.02
2023-03-11T06:02:48.967Z,4.90
2023-03-11T06:03:30.095Z,4.93
2023-03-11T06:04:12.095Z,4.91
2023-03-11T06:04:52.271Z,4.86
2023-03-11T06:05:31.939Z,4.85
2023-03-11T06:06:14.063Z,5.00
2023-03-11T06:06:53.949Z,5.02
2023-03-11T06:07:34.036Z,4.83
2023-03-11T06:08:14.911Z,4.96
2023-03-11T06:08:55.031Z,4.79
2023-03-11T06:09:34.942Z,4.95
2023-03-11T06:10:16.013Z,4.93
2023-03-11T06:10:56.930Z,4.97
2023-03-11T06:11:37.037Z,5.00
2023-03-11T06:12:17.978Z,5.15
2023-03-11T06:12:58.020Z,5.13
2023-03-11T06:13:38.928Z,5.02
2023-03-11T06:14:22.012Z,4.97
2023-03-11T06:15:02.953Z,5.03
2023-03-11T06:15:44.003Z,5.10
2023-03-11T06:16:24.973Z,5.00
2023-03-11T06:17:06.021Z,4.89
2023-03-11T06:17:45.960Z,4.65
2023-03-11T06:18:26.696Z,4.82
2023-03-11T06:19:07.929Z,4.63
2023-03-11T06:19:48.023Z,4.84
2023-03-11T06:20:28.949Z,4.75
2023-03-11T06:21:10.028Z,4.75
2023-03-11T06:21:49.913Z,4.72
2023-03-11T06:22:30.010Z,4.81
2023-03-11T06:23:10.942Z,4.89
2023-03-11T06:23:52.006Z,4.84
2023-03-11T06:24:32.925Z,4.92
2023-03-11T06:25:14.075Z,5.04
2023-03-11T06:26:11.952Z,4.91
2023-03-11T06:26:52.063Z,4.90
2023-03-11T06:27:32.905Z,4.89
2023-03-11T06:28:13.020Z,4.92
2023-03-11T06:28:54.888Z,4.99
2023-03-11T06:29:34.991Z,5.01
2023-03-11T06:30:16.923Z,4.89
2023-03-11T06:30:58.724Z,4.77
2023-03-11T06:31:40.025Z,4.70
2023-03-11T06:32:20.055Z,4.74
2023-03-11T06:33:01.903Z,4.69
2023-03-11T06:33:42.048Z,4.74
2023-03-11T06:34:22.928Z,4.83
2023-03-11T06:35:03.056Z,4.87
2023-03-11T06:35:42.920Z,4.80
2023-03-11T06:36:26.000Z,4.93
2023-03-11T06:37:06.933Z,4.78
2023-03-11T06:37:46.973Z,4.79
2023-03-11T06:38:27.947Z,4.72
2023-03-11T06:39:08.081Z,4.97
2023-03-11T06:39:48.910Z,4.90
2023-03-11T06:40:29.012Z,4.98
2023-03-11T06:41:10.897Z,4.92
2023-03-11T06:41:51.023Z,4.98
2023-03-11T06:42:31.954Z,4.93
2023-03-11T06:43:12.021Z,4.83
2023-03-11T06:43:52.892Z,4.66
2023-03-11T06:44:33.053Z,4.82
2023-03-11T06:45:14.901Z,4.80
2023-03-11T06:45:55.090Z,4.68
2023-03-11T06:46:34.910Z,4.67
2023-03-11T06:47:14.987Z,4.57
2023-03-11T06:47:54.988Z,4.75
2023-03-11T06:48:34.963Z,4.76
2023-03-11T06:49:17.902Z,4.67
2023-03-11T06:50:02.365Z,4.78
2023-03-11T06:50:44.422Z,4.87
2023-03-11T06:51:26.057Z,4.84
2023-03-11T06:52:05.883Z,4.73
2023-03-11T06:52:46.005Z,4.85
2023-03-11T06:53:26.918Z,4.76
2023-03-11T06:54:07.164Z,4.85
2023-03-11T06:54:47.881Z,4.92
2023-03-11T06:55:27.962Z,4.81
2023-03-11T06:56:10.897Z,4.65
2023-03-11T06:56:50.993Z,4.73
2023-03-11T06:57:32.892Z,4.78
2023-03-11T06:58:12.984Z,4.96
2023-03-11T06:58:53.967Z,4.87
2023-03-11T06:59:33.990Z,4.73
2023-03-11T07:00:18.869Z,4.84
2023-03-11T07:00:59.035Z,4.61
2023-03-11T07:01:39.876Z,4.62
2023-03-11T07:02:52.962Z,4.75
2023-03-11T07:03:32.929Z,4.71
2023-03-11T07:04:12.943Z,4.87
2023-03-11T07:04:46.981Z,4.79
2023-03-11T07:05:34.864Z,4.88
2023-03-11T07:06:09.810Z,4.57
2023-03-11T07:06:56.877Z,4.81
2023-03-11T07:07:34.982Z,4.84
2023-03-11T07:08:23.106Z,4.67
2023-03-11T07:08:59.971Z,4.97
2023-03-11T07:09:40.924Z,4.79
2023-03-11T07:10:20.983Z,4.78
2023-03-11T07:11:29.923Z,4.86
2023-03-11T07:12:11.096Z,4.73
2023-03-11T07:12:52.892Z,4.94
2023-03-11T07:13:34.999Z,4.81
2023-03-11T07:14:16.416Z,4.69
2023-03-11T07:15:02.927Z,4.93
2023-03-11T07:15:39.160Z,4.76
2023-03-11T07:16:29.939Z,4.61
2023-03-11T07:17:03.981Z,4.63
2023-03-11T07:17:53.868Z,4.61
2023-03-11T07:18:28.033Z,4.45
2023-03-11T07:19:16.841Z,4.60
2023-03-11T07:19:51.980Z,4.46
2023-03-11T07:20:33.877Z,4.42
2023-03-11T07:21:16.544Z,4.43
2023-03-11T07:21:58.860Z,4.53
2023-03-11T07:22:38.947Z,4.47
2023-03-11T07:23:18.828Z,4.43
2023-03-11T07:24:04.032Z,4.46
2023-03-11T07:24:44.882Z,4.40
2023-03-11T07:25:24.999Z,4.32
2023-03-11T07:26:05.958Z,4.37
2023-03-11T07:26:47.979Z,4.19
2023-03-11T07:27:28.908Z,4.09
2023-03-11T07:28:08.942Z,4.38
2023-03-11T07:28:50.886Z,4.24
2023-03-11T07:29:32.982Z,4.19
2023-03-11T07:30:13.891Z,4.32
2023-03-11T07:30:55.999Z,4.27
2023-03-11T07:31:39.916Z,4.15
2023-03-11T07:32:20.995Z,4.19
2023-03-11T07:33:01.862Z,4.18
2023-03-11T07:33:41.943Z,4.17
2023-03-11T07:34:27.865Z,4.25
2023-03-11T07:35:07.953Z,4.29
2023-03-11T07:35:48.877Z,4.22
2023-03-11T07:36:31.957Z,4.13
2023-03-11T07:37:12.871Z,4.01
2023-03-11T07:37:52.953Z,3.96
2023-03-11T07:38:33.015Z,4.16
2023-03-11T07:39:12.974Z,4.10
2023-03-11T07:39:54.914Z,4.08
2023-03-11T07:40:34.967Z,4.13
2023-03-11T07:41:18.407Z,4.09
2023-03-11T07:41:58.913Z,4.07
2023-03-11T07:42:40.850Z,4.09
2023-03-11T07:43:21.045Z,4.14
2023-03-11T07:44:06.166Z,4.30
2023-03-11T07:45:04.856Z,4.31
2023-03-11T07:45:58.878Z,4.13
2023-03-11T07:46:52.881Z,4.26
2023-03-11T07:47:46.853Z,4.31
2023-03-11T07:48:40.824Z,4.02
2023-03-11T07:49:34.887Z,4.05
2023-03-11T07:50:30.863Z,4.14
2023-03-11T07:51:28.861Z,3.95
2023-03-11T07:52:23.839Z,3.76
2023-03-11T07:53:10.865Z,4.06
2023-03-11T07:53:44.922Z,4.00
2023-03-11T07:54:31.815Z,3.84
2023-03-11T07:55:05.960Z,3.94
2023-03-11T07:55:52.849Z,3.93
2023-03-11T07:56:28.036Z,3.86
2023-03-11T07:57:19.857Z,3.90
2023-03-11T07:57:54.983Z,3.73
2023-03-11T07:58:35.847Z,3.77
2023-03-11T07:59:15.953Z,3.57
2023-03-11T07:59:56.825Z,3.58
2023-03-11T08:00:36.946Z,3.53
2023-03-11T08:01:26.827Z,3.44
2023-03-11T08:02:06.942Z,3.60
2023-03-11T08:02:47.865Z,3.50
2023-03-11T08:03:27.972Z,3.63
2023-03-11T08:04:14.219Z,3.62
2023-03-11T08:04:54.947Z,3.65
2023-03-11T08:05:35.804Z,3.71
2023-03-11T08:06:27.047Z,3.57
2023-03-11T08:07:07.807Z,3.64
2023-03-11T08:07:47.963Z,3.58
2023-03-11T08:08:27.792Z,3.60
2023-03-11T08:09:20.871Z,3.75
2023-03-11T08:10:14.831Z,3.55
2023-03-11T08:11:08.808Z,3.79
2023-03-11T08:12:02.817Z,3.62
2023-03-11T08:12:56.857Z,3.64
2023-03-11T08:13:50.820Z,3.59
2023-03-11T08:14:37.824Z,3.51
2023-03-11T08:15:12.903Z,3.52
2023-03-11T08:15:59.846Z,3.49
2023-03-11T08:16:34.076Z,3.35
2023-03-11T08:17:20.829Z,3.31
2023-03-11T08:17:54.968Z,3.35
2023-03-11T08:18:41.815Z,3.32
2023-03-11T08:19:18.944Z,3.27
2023-03-11T08:19:59.816Z,3.26
2023-03-11T08:20:40.930Z,3.40
2023-03-11T08:21:24.806Z,3.27
2023-03-11T08:22:06.925Z,3.31
2023-03-11T08:22:57.569Z,3.55
2023-03-11T08:23:37.889Z,3.43
2023-03-11T08:24:20.825Z,3.54
2023-03-11T08:25:07.837Z,3.56
2023-03-11T08:26:01.818Z,3.41
2023-03-11T08:26:55.853Z,3.54
2023-03-11T08:27:49.791Z,3.27
2023-03-11T08:28:43.800Z,3.30
2023-03-11T08:29:38.806Z,3.21
2023-03-11T08:30:25.835Z,3.20
2023-03-11T08:30:59.948Z,3.02
2023-03-11T08:31:46.779Z,3.27
2023-03-11T08:32:20.949Z,3.25
2023-03-11T08:33:07.763Z,3.20
2023-03-11T08:33:41.885Z,3.33
2023-03-11T08:34:29.763Z,3.25
2023-03-11T08:35:04.927Z,3.38
2023-03-11T08:35:45.825Z,3.27
2023-03-11T08:36:27.860Z,3.32
2023-03-11T08:37:08.779Z,3.32
2023-03-11T08:37:48.868Z,3.42
2023-03-11T08:38:28.822Z,3.37
2023-03-11T08:39:12.060Z,3.26
2023-03-11T08:39:52.817Z,3.34
2023-03-11T08:40:32.880Z,3.29
2023-03-11T08:41:13.821Z,3.31
2023-03-11T08:41:53.908Z,3.15
2023-03-11T08:42:37.051Z,3.12
2023-03-11T08:43:21.905Z,3.13
2023-03-11T08:44:02.796Z,3.26
2023-03-11T08:44:57.823Z,3.16
2023-03-11T08:45:54.802Z,3.09
2023-03-11T08:46:39.817Z,3.13
2023-03-11T08:47:19.868Z,3.13
2023-03-11T08:48:00.747Z,2.97
2023-03-11T08:48:42.894Z,3.02
2023-03-11T08:49:23.772Z,3.04
2023-03-11T08:50:03.914Z,3.02
2023-03-11T08:50:53.982Z,2.98
2023-03-11T08:51:37.928Z,3.17
2023-03-11T08:52:18.841Z,3.09
2023-03-11T08:53:00.606Z,3.04
2023-03-11T08:53:41.793Z,2.98
2023-03-11T08:54:21.879Z,3.03
2023-03-11T08:55:02.801Z,3.10
2023-03-11T08:55:42.888Z,3.10
2023-03-11T08:56:23.750Z,3.02
2023-03-11T08:57:04.743Z,3.22
2023-03-11T08:57:45.799Z,2.92
2023-03-11T08:58:26.960Z,3.04
2023-03-11T08:59:07.779Z,3.12
2023-03-11T08:59:47.928Z,3.08
2023-03-11T09:00:29.842Z,3.05
2023-03-11T09:01:10.934Z,3.12
2023-03-11T09:01:51.758Z,2.95
2023-03-11T09:02:32.860Z,3.11
2023-03-11T09:03:12.822Z,3.12
2023-03-11T09:03:52.943Z,3.25
2023-03-11T09:04:34.760Z,3.42
2023-03-11T09:05:15.992Z,3.05
2023-03-11T09:06:03.111Z,3.16
2023-03-11T09:06:43.944Z,2.92
2023-03-11T09:07:24.942Z,3.06
2023-03-11T09:08:05.940Z,3.15
2023-03-11T09:08:46.849Z,2.87
2023-03-11T09:09:26.890Z,2.96
2023-03-11T09:10:13.839Z,2.95
2023-03-11T09:10:54.037Z,3.12
2023-03-11T09:11:34.829Z,2.89
2023-03-11T09:12:17.116Z,2.93
2023-03-11T09:12:57.900Z,3.05
2023-03-11T09:13:40.975Z,3.23
2023-03-11T09:14:21.894Z,2.89
2023-03-11T09:15:02.045Z,3.26
2023-03-11T09:15:45.874Z,3.18
2023-03-11T09:17:15.115Z,3.21
2023-03-11T09:18:00.824Z,2.90
2023-03-11T09:19:12.952Z,2.85
2023-03-11T09:19:53.963Z,2.84
2023-03-11T09:20:36.918Z,3.22
2023-03-11T09:21:17.837Z,3.03
2023-03-11T09:21:57.957Z,3.01
2023-03-11T09:22:38.854Z,2.99
2023-03-11T09:23:23.017Z,3.10
2023-03-11T09:24:07.864Z,3.09
2023-03-11T09:24:48.026Z,3.25